Time;durP1;ratioP1;P1;durP2;ratioP2;P2;SDS_P1;SDS_P2;PMS_P1;PMS_P2;Temp;Humidity;BMP_temperature;BMP_pressure;BME280_temperature;BME280_humidity;BME280_pressure;Samples;Min_cycle;Max_cycle;Signal;HPM_P1;HPM_P2
2023/09/09 00:01:38;;;;;;;9.97;8.97;;;18.20;1.00;;;;;;5118424;28;20700;-59
2023/09/09 00:04:05;;;;;;;11.33;10.23;;;18.10;1.00;;;;;;5118211;28;20455;-58
2023/09/09 00:06:34;;;;;;;10.40;9.30;;;18.20;1.00;;;;;;5117845;28;20458;-58
2023/09/09 00:09:01;;;;;;;10.13;9.13;;;18.10;1.00;;;;;;5118313;28;20763;-59
2023/09/09 00:11:28;;;;;;;11.37;8.63;;;18.00;1.00;;;;;;5117849;28;20462;-59
2023/09/09 00:13:55;;;;;;;11.37;10.27;;;18.00;1.00;;;;;;5117961;28;20455;-59
2023/09/09 00:16:22;;;;;;;11.00;9.83;;;18.00;1.00;;;;;;5118085;28;20487;-59
2023/09/09 00:18:50;;;;;;;10.33;9.33;;;18.00;1.00;;;;;;5118088;28;20462;-59
2023/09/09 00:21:17;;;;;;;9.77;8.87;;;18.00;1.00;;;;;;5117799;28;20480;-59
2023/09/09 00:23:45;;;;;;;10.40;9.40;;;18.00;1.00;;;;;;5117774;28;20426;-58
2023/09/09 00:26:12;;;;;;;10.17;9.03;;;18.00;1.00;;;;;;5117811;28;20481;-58
2023/09/09 00:28:40;;;;;;;10.50;9.50;;;18.00;1.00;;;;;;5117930;28;20502;-59
2023/09/09 00:31:07;;;;;;;9.93;9.00;;;17.90;1.00;;;;;;5118041;28;20750;-58
2023/09/09 00:33:34;;;;;;;10.30;9.40;;;17.80;1.00;;;;;;5117699;28;20498;-59
2023/09/09 00:36:02;;;;;;;9.90;9.00;;;17.80;1.00;;;;;;5117954;28;20455;-59
2023/09/09 00:38:29;;;;;;;11.33;10.27;;;17.80;1.00;;;;;;5117594;28;20495;-58
2023/09/09 00:41:14;;;;;;;10.40;9.33;;;17.70;1.00;;;;;;5118008;28;20462;-58
2023/09/09 00:43:41;;;;;;;11.67;10.47;;;17.70;1.00;;;;;;5117925;28;20561;-58
2023/09/09 00:46:09;;;;;;;9.60;8.70;;;17.70;1.00;;;;;;5117874;28;20455;-58
2023/09/09 00:48:37;;;;;;;9.13;8.23;;;17.70;1.00;;;;;;5118065;28;20463;-59
2023/09/09 00:51:05;;;;;;;9.47;8.57;;;17.80;1.00;;;;;;5117683;28;20462;-59
2023/09/09 00:53:33;;;;;;;9.90;9.00;;;17.70;1.00;;;;;;5118804;28;20466;-58
2023/09/09 00:56:02;;;;;;;10.30;9.40;;;17.60;1.00;;;;;;5121670;28;20463;-58
2023/09/09 00:58:32;;;;;;;10.93;9.77;;;17.50;1.00;;;;;;5122202;28;20883;-58
2023/09/09 01:01:02;;;;;;;10.07;9.20;;;17.60;1.00;;;;;;5121922;28;20550;-58
2023/09/09 01:03:30;;;;;;;10.47;9.50;;;17.50;1.00;;;;;;5121352;28;20463;-58
2023/09/09 01:05:59;;;;;;;9.70;8.80;;;17.40;1.00;;;;;;5115117;28;20459;-58
2023/09/09 01:08:27;;;;;;;10.67;9.63;;;17.30;1.00;;;;;;5100516;28;20460;-58
2023/09/09 01:10:54;;;;;;;11.37;10.37;;;17.40;1.00;;;;;;5101596;28;20476;-58
2023/09/09 01:13:22;;;;;;;10.80;9.60;;;17.30;1.00;;;;;;5101138;28;20826;-58
2023/09/09 01:15:50;;;;;;;10.23;9.23;;;17.30;1.00;;;;;;5100335;28;20453;-59
2023/09/09 01:18:18;;;;;;;10.33;9.43;;;17.30;1.00;;;;;;5100664;28;20792;-58
2023/09/09 01:20:53;;;;;;;10.97;10.00;;;17.20;1.00;;;;;;5100772;28;20563;-58
2023/09/09 01:23:22;;;;;;;11.03;10.00;;;17.30;1.00;;;;;;5100561;28;20463;-58
2023/09/09 01:25:49;;;;;;;10.70;9.30;;;17.20;1.00;;;;;;5100750;28;20877;-59
2023/09/09 01:28:21;;;;;;;11.13;10.00;;;17.20;1.00;;;;;;5100970;28;20718;-58
2023/09/09 01:30:49;;;;;;;10.53;9.47;;;17.20;1.00;;;;;;5100799;28;20456;-58
2023/09/09 01:33:16;;;;;;;11.33;9.67;;;17.10;1.00;;;;;;5100511;28;20866;-58
2023/09/09 01:35:43;;;;;;;11.47;10.37;;;17.10;1.00;;;;;;5100532;28;20462;-58
2023/09/09 01:38:11;;;;;;;10.90;9.80;;;17.00;1.00;;;;;;5099919;28;20492;-60
2023/09/09 01:40:39;;;;;;;10.30;9.40;;;17.00;1.00;;;;;;5080549;28;20456;-58
2023/09/09 01:43:07;;;;;;;11.37;10.07;;;16.90;1.00;;;;;;5080740;28;20560;-58
2023/09/09 01:45:34;;;;;;;10.93;9.80;;;16.90;1.00;;;;;;5079815;28;20457;-58
2023/09/09 01:48:01;;;;;;;11.33;10.43;;;16.80;1.00;;;;;;5080127;28;20449;-59
2023/09/09 01:50:28;;;;;;;11.40;10.20;;;16.80;1.00;;;;;;5080242;28;20879;-59
2023/09/09 01:52:56;;;;;;;9.63;8.73;;;16.70;1.00;;;;;;5080083;28;20453;-58
2023/09/09 01:55:23;;;;;;;11.50;10.33;;;16.80;1.00;;;;;;5079987;28;20756;-58
2023/09/09 01:57:52;;;;;;;11.73;10.63;;;16.80;1.00;;;;;;5079957;28;20939;-58
2023/09/09 02:00:19;;;;;;;10.20;9.23;;;16.80;1.00;;;;;;5080558;28;20457;-59
2023/09/09 02:02:46;;;;;;;10.87;9.77;;;16.90;1.00;;;;;;5080068;28;20457;-58
2023/09/09 02:05:13;;;;;;;11.30;10.20;;;16.90;1.00;;;;;;5079038;28;20457;-58
2023/09/09 02:07:40;;;;;;;11.13;10.03;;;16.90;1.00;;;;;;5079752;28;20458;-59
2023/09/09 02:10:08;;;;;;;11.23;10.13;;;16.90;1.00;;;;;;5079483;28;20468;-58
2023/09/09 02:12:35;;;;;;;10.53;9.53;;;16.90;1.00;;;;;;5080184;28;20465;-58
2023/09/09 02:15:04;;;;;;;10.90;9.90;;;16.90;1.00;;;;;;5079379;28;20556;-59
2023/09/09 02:17:31;;;;;;;10.73;9.80;;;16.90;1.00;;;;;;5079212;28;20493;-58
2023/09/09 02:19:58;;;;;;;11.23;10.13;;;16.80;1.00;;;;;;5079390;28;20457;-59
2023/09/09 02:22:25;;;;;;;10.00;9.10;;;16.70;1.00;;;;;;5079617;28;20462;-59
2023/09/09 02:24:56;;;;;;;10.87;9.83;;;16.70;1.00;;;;;;5078854;28;20463;-59
2023/09/09 02:27:24;;;;;;;11.37;10.27;;;16.70;1.00;;;;;;5079644;28;20804;-58
2023/09/09 02:29:51;;;;;;;10.70;9.70;;;16.70;1.00;;;;;;5079198;28;20839;-58
2023/09/09 02:32:20;;;;;;;10.10;9.20;;;16.70;1.00;;;;;;5079375;28;20457;-58
2023/09/09 02:34:47;;;;;;;10.57;9.57;;;16.70;1.00;;;;;;5079519;28;20454;-59
2023/09/09 02:37:17;;;;;;;10.00;9.10;;;16.70;1.00;;;;;;5079079;28;20493;-59
2023/09/09 02:39:45;;;;;;;12.10;10.80;;;16.60;1.00;;;;;;5078800;28;20539;-59
2023/09/09 02:42:14;;;;;;;11.80;10.57;;;16.60;1.00;;;;;;5079119;28;20887;-59
2023/09/09 02:44:42;;;;;;;10.50;9.50;;;16.40;1.00;;;;;;5079727;28;20465;-60
2023/09/09 02:47:09;;;;;;;10.00;9.00;;;16.30;1.00;;;;;;5079009;28;20791;-59
2023/09/09 02:49:38;;;;;;;10.83;9.73;;;16.30;1.00;;;;;;5078628;28;20454;-59
2023/09/09 02:52:06;;;;;;;11.33;10.30;;;16.30;1.00;;;;;;5079080;28;20428;-58
2023/09/09 02:54:34;;;;;;;10.07;9.17;;;16.30;1.00;;;;;;5079128;28;20465;-59
2023/09/09 02:57:03;;;;;;;11.10;10.17;;;16.40;1.00;;;;;;5078952;28;20511;-59
2023/09/09 02:59:31;;;;;;;11.80;10.33;;;16.40;1.00;;;;;;5078425;28;20515;-59
2023/09/09 03:01:58;;;;;;;10.57;9.60;;;16.40;1.00;;;;;;5079031;28;20737;-58
2023/09/09 03:04:26;;;;;;;11.77;10.70;;;16.40;1.00;;;;;;5078705;28;20454;-59
2023/09/09 03:06:54;;;;;;;11.10;9.57;;;16.30;1.00;;;;;;5078487;28;20453;-58
2023/09/09 03:09:22;;;;;;;10.30;9.30;;;16.20;1.00;;;;;;5078127;28;20507;-59
2023/09/09 03:11:49;;;;;;;10.97;9.97;;;16.20;1.00;;;;;;5078454;28;20477;-58
2023/09/09 03:14:16;;;;;;;11.13;9.93;;;16.20;1.00;;;;;;5078939;28;20449;-58
2023/09/09 03:16:45;;;;;;;11.53;10.50;;;16.10;1.00;;;;;;5077531;28;20449;-59
2023/09/09 03:19:12;;;;;;;9.93;9.03;;;16.00;2.60;;;;;;5077549;28;20457;-59
2023/09/09 03:21:39;;;;;;;14.00;10.60;;;16.00;39.50;;;;;;5077725;28;20457;-59
2023/09/09 03:24:08;;;;;;;11.00;9.90;;;16.00;18.40;;;;;;5078456;28;20963;-59
2023/09/09 03:26:35;;;;;;;11.60;10.57;;;16.00;6.40;;;;;;5078207;28;20769;-59
2023/09/09 03:29:02;;;;;;;11.67;10.23;;;16.10;25.70;;;;;;5078198;28;20758;-59
2023/09/09 03:31:29;;;;;;;12.73;10.17;;;16.10;1.00;;;;;;5078042;28;20467;-59
2023/09/09 03:33:57;;;;;;;10.83;9.73;;;16.10;1.00;;;;;;5077927;28;20462;-58
2023/09/09 03:36:24;;;;;;;9.77;8.70;;;16.20;1.00;;;;;;5077968;28;20906;-59
2023/09/09 03:38:51;;;;;;;10.80;9.27;;;16.20;1.00;;;;;;5077534;28;20507;-59
2023/09/09 03:41:19;;;;;;;10.57;9.47;;;16.20;1.00;;;;;;5077006;28;20468;-59
2023/09/09 03:43:46;;;;;;;11.60;10.50;;;16.20;1.00;;;;;;5077171;28;20463;-59
2023/09/09 03:46:13;;;;;;;10.83;9.73;;;16.20;1.00;;;;;;5080172;28;20470;-60
2023/09/09 03:48:41;;;;;;;11.17;10.20;;;16.10;1.00;;;;;;5079787;28;20457;-59
2023/09/09 03:51:08;;;;;;;10.47;9.50;;;16.10;1.00;;;;;;5077158;28;20458;-59
2023/09/09 03:53:35;;;;;;;11.43;10.33;;;15.90;1.00;;;;;;5076722;28;20461;-59
2023/09/09 03:56:02;;;;;;;10.83;9.73;;;15.80;1.00;;;;;;5077087;28;20464;-59
2023/09/09 03:58:30;;;;;;;12.97;10.20;;;15.80;1.00;;;;;;5077136;28;20507;-59
2023/09/09 04:01:05;;;;;;;9.80;8.90;;;15.90;1.00;;;;;;5077065;28;20454;-59
2023/09/09 04:03:34;;;;;;;10.47;9.50;;;15.80;99.90;;;;;;5077061;28;20457;-59
2023/09/09 04:06:03;;;;;;;11.40;10.20;;;15.90;1.00;;;;;;5076982;28;20461;-59
2023/09/09 04:08:31;;;;;;;10.70;9.60;;;15.80;99.90;;;;;;5076672;28;20552;-59
2023/09/09 04:10:58;;;;;;;11.57;9.93;;;15.70;1.00;;;;;;5076738;28;20552;-58
2023/09/09 04:13:25;;;;;;;13.03;9.53;;;15.70;99.90;;;;;;5076316;28;20472;-59
2023/09/09 04:15:56;;;;;;;10.93;9.93;;;15.70;1.00;;;;;;5076023;28;20493;-59
2023/09/09 04:18:23;;;;;;;8.83;8.13;;;15.60;1.00;;;;;;5076765;28;20489;-59
2023/09/09 04:20:50;;;;;;;11.00;9.90;;;15.50;61.10;;;;;;5076684;28;20894;-60
2023/09/09 04:23:18;;;;;;;11.27;9.90;;;15.40;98.80;;;;;;5076166;28;20453;-59
2023/09/09 04:25:45;;;;;;;11.60;10.37;;;15.40;99.90;;;;;;5076158;28;20475;-60
2023/09/09 04:28:13;;;;;;;11.43;10.33;;;15.40;99.90;;;;;;5076428;28;20751;-59
2023/09/09 04:30:41;;;;;;;10.73;9.60;;;15.50;99.90;;;;;;5076649;28;20595;-59
2023/09/09 04:33:11;;;;;;;10.67;9.73;;;15.50;61.30;;;;;;5076220;28;20761;-59
2023/09/09 04:35:39;;;;;;;10.70;9.63;;;15.40;99.90;;;;;;5076345;28;20762;-59
2023/09/09 04:38:07;;;;;;;10.97;9.97;;;15.40;99.90;;;;;;5075221;28;20496;-59
2023/09/09 04:40:34;;;;;;;12.17;10.80;;;15.50;99.90;;;;;;5054221;28;1206853;-60
2023/09/09 04:43:02;;;;;;;10.57;9.50;;;15.60;82.40;;;;;;5097477;28;20595;-60
2023/09/09 04:45:29;;;;;;;11.63;10.40;;;15.60;76.70;;;;;;5097065;28;20471;-59
2023/09/09 04:47:56;;;;;;;11.13;10.10;;;15.60;31.30;;;;;;5096965;28;20456;-60
2023/09/09 04:50:24;;;;;;;11.07;9.90;;;15.70;1.00;;;;;;5097072;28;20456;-60
2023/09/09 04:52:52;;;;;;;11.70;10.60;;;15.60;1.00;;;;;;5097697;28;20427;-60
2023/09/09 04:55:19;;;;;;;11.40;10.30;;;15.60;1.00;;;;;;5096545;28;20452;-59
2023/09/09 04:57:46;;;;;;;11.60;9.60;;;15.60;1.00;;;;;;5096493;28;20492;-59
2023/09/09 05:00:14;;;;;;;11.27;10.17;;;15.60;1.00;;;;;;5097294;28;20475;-60
2023/09/09 05:02:41;;;;;;;11.60;10.20;;;15.50;1.00;;;;;;5096130;28;20457;-60
2023/09/09 05:05:09;;;;;;;11.23;10.13;;;15.50;1.00;;;;;;5096194;28;20464;-60
2023/09/09 05:07:38;;;;;;;10.53;9.50;;;15.50;14.90;;;;;;5096643;28;20460;-60
2023/09/09 05:10:06;;;;;;;10.50;9.50;;;15.60;5.10;;;;;;5096826;28;20456;-60
2023/09/09 05:12:35;;;;;;;10.47;8.83;;;15.60;1.00;;;;;;5097362;28;20467;-60
2023/09/09 05:15:03;;;;;;;9.93;9.03;;;15.50;1.00;;;;;;5097520;28;20434;-60
2023/09/09 05:17:30;;;;;;;12.27;10.33;;;15.60;1.00;;;;;;5096753;28;20939;-61
2023/09/09 05:19:57;;;;;;;10.93;9.93;;;15.50;1.00;;;;;;5096930;28;20462;-60
2023/09/09 05:22:24;;;;;;;11.37;10.27;;;15.50;1.00;;;;;;5097043;28;20460;-60
2023/09/09 05:24:52;;;;;;;11.50;10.17;;;15.50;13.40;;;;;;5096861;28;20460;-60
2023/09/09 05:27:19;;;;;;;9.37;8.43;;;15.60;16.60;;;;;;5096597;28;20456;-60
2023/09/09 05:29:48;;;;;;;10.20;9.30;;;15.60;15.50;;;;;;5096919;28;20761;-60
2023/09/09 05:32:16;;;;;;;10.50;9.60;;;15.70;21.40;;;;;;5096867;28;20456;-60
2023/09/09 05:34:43;;;;;;;10.30;9.27;;;15.70;27.50;;;;;;5096851;28;20456;-60
2023/09/09 05:37:10;;;;;;;11.10;10.00;;;15.80;1.70;;;;;;5096382;28;20463;-60
2023/09/09 05:39:37;;;;;;;12.90;10.37;;;15.80;1.00;;;;;;5097862;28;20886;-60
2023/09/09 05:42:06;;;;;;;9.63;8.73;;;15.80;1.00;;;;;;5103182;28;20456;-60
2023/09/09 05:44:35;;;;;;;10.73;9.63;;;16.00;12.30;;;;;;5119553;28;20459;-60
2023/09/09 05:47:02;;;;;;;11.13;9.87;;;16.00;9.00;;;;;;5119181;28;20490;-60
2023/09/09 05:49:29;;;;;;;11.43;10.23;;;16.10;17.70;;;;;;5119268;28;20471;-60
2023/09/09 05:51:56;;;;;;;11.77;10.67;;;16.20;1.00;;;;;;5119511;28;20868;-60
2023/09/09 05:54:23;;;;;;;10.93;9.83;;;16.20;1.00;;;;;;5119676;28;20458;-60
2023/09/09 05:56:50;;;;;;;11.80;10.60;;;16.30;8.50;;;;;;5119419;28;20751;-60
2023/09/09 05:59:19;;;;;;;10.40;9.30;;;16.30;15.70;;;;;;5117833;28;20485;-60
2023/09/09 06:01:46;;;;;;;11.40;10.30;;;16.50;74.90;;;;;;5118258;28;20448;-60
2023/09/09 06:04:16;;;;;;;11.50;10.40;;;16.60;75.20;;;;;;5118655;28;20459;-60
2023/09/09 06:06:44;;;;;;;12.17;10.60;;;16.70;36.90;;;;;;5118390;28;20459;-60
2023/09/09 06:09:12;;;;;;;11.30;10.10;;;16.80;27.10;;;;;;5118083;28;20735;-60
2023/09/09 06:11:39;;;;;;;11.27;10.27;;;16.90;14.90;;;;;;5118844;28;20459;-61
2023/09/09 06:14:06;;;;;;;11.40;10.23;;;16.90;1.00;;;;;;5119362;28;20455;-60
2023/09/09 06:16:35;;;;;;;12.03;10.93;;;17.00;18.10;;;;;;5118337;28;20876;-60
2023/09/09 06:19:02;;;;;;;12.00;10.13;;;17.20;31.90;;;;;;5117988;28;20480;-60
2023/09/09 06:21:29;;;;;;;10.83;9.83;;;17.30;31.40;;;;;;5117795;28;20763;-61
2023/09/09 06:23:56;;;;;;;10.73;9.60;;;17.40;37.00;;;;;;5117632;28;20452;-60
2023/09/09 06:26:23;;;;;;;10.40;9.50;;;17.50;1.00;;;;;;5117936;28;20454;-60
2023/09/09 06:28:51;;;;;;;10.80;9.70;;;17.80;1.00;;;;;;5118804;28;20458;-60
2023/09/09 06:31:18;;;;;;;9.93;9.03;;;17.90;1.00;;;;;;5119479;28;20452;-60
2023/09/09 06:33:46;;;;;;;10.53;9.53;;;17.90;1.00;;;;;;5119771;28;20467;-60
2023/09/09 06:36:13;;;;;;;11.20;9.00;;;18.10;1.00;;;;;;5119303;28;20466;-60
2023/09/09 06:38:41;;;;;;;10.53;9.53;;;18.30;1.00;;;;;;5123716;27;20939;-60
2023/09/09 06:41:08;;;;;;;13.47;9.17;;;18.50;1.00;;;;;;5140219;27;20885;-59
2023/09/09 06:43:36;;;;;;;9.60;8.60;;;18.70;1.00;;;;;;5140252;27;20458;-59
2023/09/09 06:46:03;;;;;;;9.70;8.80;;;18.90;1.00;;;;;;5140024;27;20455;-59
2023/09/09 06:48:30;;;;;;;9.57;8.67;;;19.10;1.00;;;;;;5140327;27;20743;-59
2023/09/09 06:50:58;;;;;;;10.10;9.20;;;19.30;99.90;;;;;;5138995;27;20461;-59
2023/09/09 06:53:26;;;;;;;9.70;8.80;;;19.40;99.90;;;;;;5140178;27;20462;-60
2023/09/09 06:55:54;;;;;;;10.73;9.50;;;19.60;99.90;;;;;;5140238;27;20948;-59
2023/09/09 06:58:21;;;;;;;8.97;8.17;;;19.70;99.90;;;;;;5139980;27;20581;-59
2023/09/09 07:00:51;;;;;;;11.00;8.83;;;19.90;99.90;;;;;;5140209;27;20550;-59
2023/09/09 07:03:18;;;;;;;8.73;7.83;;;20.20;99.90;;;;;;5139975;27;20458;-59
2023/09/09 07:05:46;;;;;;;9.07;8.20;;;20.30;99.90;;;;;;5140018;27;20880;-59
2023/09/09 07:08:14;;;;;;;8.47;7.67;;;20.50;99.90;;;;;;5139620;27;20461;-59
2023/09/09 07:10:49;;;;;;;8.47;7.67;;;20.60;94.20;;;;;;5139288;27;20756;-59
2023/09/09 07:13:17;;;;;;;8.27;7.47;;;20.80;1.00;;;;;;5139621;27;20481;-59
2023/09/09 07:15:44;;;;;;;9.30;8.50;;;21.00;6.50;;;;;;5139220;27;20955;-59
2023/09/09 07:18:11;;;;;;;9.83;7.13;;;21.20;1.00;;;;;;5139729;27;20907;-59
2023/09/09 07:20:39;;;;;;;9.37;8.47;;;21.40;1.00;;;;;;5140126;27;20468;-59
2023/09/09 07:23:06;;;;;;;9.03;7.40;;;21.70;1.00;;;;;;5139429;27;20461;-59
2023/09/09 07:25:35;;;;;;;8.67;7.40;;;21.90;1.00;;;;;;5139053;27;20439;-59
2023/09/09 07:28:03;;;;;;;10.37;8.03;;;22.00;99.90;;;;;;5139517;27;20454;-59
2023/09/09 07:30:32;;;;;;;8.43;7.70;;;22.30;1.00;;;;;;5139559;27;20454;-59
2023/09/09 07:32:59;;;;;;;8.10;7.40;;;22.60;1.00;;;;;;5139625;27;20550;-59
2023/09/09 07:35:26;;;;;;;8.53;7.83;;;22.80;1.00;;;;;;5139225;27;20461;-58
2023/09/09 07:37:53;;;;;;;8.57;7.70;;;23.00;1.00;;;;;;5139483;27;20461;-59
2023/09/09 07:40:21;;;;;;;7.97;7.27;;;23.20;99.90;;;;;;5139191;27;20498;-58
2023/09/09 07:42:50;;;;;;;7.80;7.10;;;23.30;99.90;;;;;;5124363;27;20456;-59
2023/09/09 07:45:19;;;;;;;8.73;7.90;;;23.40;10.10;;;;;;5117276;28;20455;-58
2023/09/09 07:47:46;;;;;;;7.30;6.60;;;23.70;99.90;;;;;;5117229;28;20842;-58
2023/09/09 07:50:13;;;;;;;8.20;7.53;;;24.00;99.90;;;;;;5118491;28;20963;-59
2023/09/09 07:52:41;;;;;;;10.30;7.37;;;24.20;99.90;;;;;;5118115;28;20456;-58
2023/09/09 07:55:09;;;;;;;10.50;7.70;;;24.50;99.90;;;;;;5118376;28;20455;-59
2023/09/09 07:57:36;;;;;;;7.67;7.07;;;24.50;1.00;;;;;;5115775;28;20463;-59
2023/09/09 08:00:07;;;;;;;8.70;7.80;;;24.70;1.00;;;;;;5116577;28;20597;-59
2023/09/09 08:02:35;;;;;;;8.23;7.63;;;25.10;99.90;;;;;;5116456;28;20516;-60
2023/09/09 08:05:02;;;;;;;8.33;7.33;;;25.40;99.90;;;;;;5116658;28;20947;-59
2023/09/09 08:07:30;;;;;;;8.93;8.23;;;25.60;99.90;;;;;;5116330;28;20460;-58
2023/09/09 08:09:57;;;;;;;8.50;7.80;;;25.80;99.90;;;;;;5114886;28;20779;-59
2023/09/09 08:12:24;;;;;;;9.10;8.00;;;26.10;1.00;;;;;;5117076;28;20848;-58
2023/09/09 08:15:06;;;;;;;8.60;7.70;;;26.30;1.00;;;;;;5117952;28;20475;-59
2023/09/09 08:17:33;;;;;;;7.70;6.70;;;26.50;1.00;;;;;;5117574;28;20743;-59
2023/09/09 08:20:05;;;;;;;7.97;7.23;;;26.70;1.00;;;;;;5117591;28;20788;-59
2023/09/09 08:22:33;;;;;;;10.27;6.90;;;26.70;99.90;;;;;;5118017;28;20517;-59
2023/09/09 08:25:00;;;;;;;8.47;7.70;;;26.90;99.90;;;;;;5118023;28;20452;-59
2023/09/09 08:27:27;;;;;;;9.53;7.40;;;26.90;99.90;;;;;;5117939;28;20455;-59
2023/09/09 08:29:55;;;;;;;8.33;7.70;;;27.20;99.90;;;;;;5117602;28;20458;-59
2023/09/09 08:32:24;;;;;;;8.17;7.47;;;27.30;99.90;;;;;;5118259;28;20454;-59
2023/09/09 08:34:52;;;;;;;7.93;7.23;;;27.60;99.90;;;;;;5117711;28;20459;-59
2023/09/09 08:37:20;;;;;;;7.90;7.17;;;27.40;8.20;;;;;;5117592;28;20456;-59
2023/09/09 08:39:47;;;;;;;8.93;7.97;;;27.40;40.90;;;;;;5117575;28;20773;-60
2023/09/09 08:42:24;;;;;;;8.60;7.90;;;27.70;99.90;;;;;;5117179;28;20549;-59
2023/09/09 08:44:59;;;;;;;8.00;7.30;;;28.10;99.90;;;;;;5116665;28;20455;-59
2023/09/09 08:47:31;;;;;;;8.97;8.13;;;28.30;99.90;;;;;;5115632;28;20458;-60
2023/09/09 08:50:01;;;;;;;7.57;6.87;;;28.50;99.90;;;;;;5116195;28;20447;-59
2023/09/09 08:52:28;;;;;;;8.10;7.40;;;28.80;99.90;;;;;;5117117;28;20451;-60
2023/09/09 08:54:56;;;;;;;8.80;7.80;;;29.10;99.90;;;;;;5117889;28;20504;-59
2023/09/09 08:57:25;;;;;;;7.97;7.33;;;29.10;99.90;;;;;;5116190;28;20455;-59
2023/09/09 08:59:53;;;;;;;8.23;7.53;;;29.30;99.90;;;;;;5116251;28;20498;-60
2023/09/09 09:02:20;;;;;;;8.50;7.90;;;29.60;99.90;;;;;;5116534;28;20554;-59
2023/09/09 09:04:52;;;;;;;8.07;7.27;;;29.70;99.90;;;;;;5114015;28;20468;-60
2023/09/09 09:07:20;;;;;;;7.60;7.10;;;29.90;99.90;;;;;;5112128;28;20459;-60
2023/09/09 09:09:47;;;;;;;8.70;7.90;;;30.10;99.90;;;;;;5102926;28;20472;-60
2023/09/09 09:12:15;;;;;;;8.57;7.90;;;30.30;99.90;;;;;;5113890;28;20557;-60
2023/09/09 09:14:46;;;;;;;8.07;7.37;;;30.40;99.90;;;;;;5114922;28;21006;-60
2023/09/09 09:17:16;;;;;;;7.80;7.20;;;30.30;99.90;;;;;;5116160;28;20446;-60
2023/09/09 09:19:43;;;;;;;10.10;9.03;;;30.70;99.90;;;;;;5118739;28;20479;-59
2023/09/09 09:22:13;;;;;;;7.73;7.00;;;30.70;99.90;;;;;;5120137;28;20455;-60
2023/09/09 09:24:44;;;;;;;8.80;7.90;;;30.60;99.90;;;;;;5120133;28;20515;-60
2023/09/09 09:27:13;;;;;;;9.60;8.57;;;30.50;99.90;;;;;;5116068;28;20467;-60
2023/09/09 09:29:40;;;;;;;8.87;8.17;;;30.40;99.90;;;;;;5114528;28;20910;-63
2023/09/09 09:32:09;;;;;;;8.90;8.10;;;30.60;99.90;;;;;;5112959;28;20471;-63
2023/09/09 09:34:36;;;;;;;9.03;7.50;;;31.00;99.90;;;;;;5118760;28;20451;-63
2023/09/09 09:37:09;;;;;;;8.60;7.90;;;31.30;99.90;;;;;;5116284;28;20481;-63
2023/09/09 09:39:38;;;;;;;8.10;7.30;;;31.60;99.90;;;;;;5111250;28;20510;-63
2023/09/09 09:42:06;;;;;;;8.60;7.00;;;31.70;99.90;;;;;;5118273;28;20884;-63
2023/09/09 09:44:33;;;;;;;7.67;7.07;;;31.70;99.90;;;;;;5119191;28;20451;-62
2023/09/09 09:47:02;;;;;;;11.87;7.70;;;31.70;99.90;;;;;;5116278;28;20515;-63
2023/09/09 09:49:37;;;;;;;7.83;7.07;;;31.50;99.90;;;;;;5117843;28;20466;-63
2023/09/09 09:52:05;;;;;;;10.67;7.37;;;31.80;99.90;;;;;;5118990;28;20450;-63
2023/09/09 09:54:33;;;;;;;12.07;8.70;;;31.70;99.90;;;;;;5121168;28;20907;-64
2023/09/09 09:57:03;;;;;;;9.30;7.87;;;31.50;99.90;;;;;;5120364;28;20455;-64
2023/09/09 09:59:32;;;;;;;10.77;7.57;;;31.40;99.90;;;;;;5119710;28;20743;-64
2023/09/09 10:02:00;;;;;;;9.77;8.20;;;31.80;99.90;;;;;;5118763;28;20475;-64
2023/09/09 10:04:28;;;;;;;9.00;8.13;;;31.80;99.90;;;;;;5119359;28;20461;-64
2023/09/09 10:06:58;;;;;;;8.73;7.53;;;31.20;99.90;;;;;;5118774;28;20944;-64
2023/09/09 10:09:33;;;;;;;9.23;7.80;;;31.80;99.90;;;;;;5117323;28;20454;-63
2023/09/09 10:12:05;;;;;;;10.53;8.03;;;32.50;99.90;;;;;;5117844;28;20974;-63
2023/09/09 10:14:35;;;;;;;9.40;8.37;;;32.70;99.90;;;;;;5117657;28;20477;-64
2023/09/09 10:17:07;;;;;;;12.13;8.80;;;32.90;99.90;;;;;;5118334;28;20459;-64
2023/09/09 10:19:36;;;;;;;9.17;8.27;;;32.60;99.90;;;;;;5118985;28;20494;-64
2023/09/09 10:22:05;;;;;;;8.37;7.47;;;32.50;99.90;;;;;;5118071;28;20478;-64
2023/09/09 10:24:33;;;;;;;7.73;6.83;;;32.10;99.90;;;;;;5120255;28;20454;-64
2023/09/09 10:27:03;;;;;;;10.00;7.27;;;32.30;99.90;;;;;;5120150;28;20451;-64
2023/09/09 10:29:31;;;;;;;9.90;7.83;;;33.00;99.90;;;;;;5120559;28;20450;-64
2023/09/09 10:32:02;;;;;;;8.83;7.63;;;33.10;99.90;;;;;;5120031;28;20472;-64
2023/09/09 10:34:31;;;;;;;10.57;7.00;;;33.30;99.90;;;;;;5119986;28;20455;-63
2023/09/09 10:37:00;;;;;;;12.60;6.80;;;33.70;99.90;;;;;;5119591;28;20504;-63
2023/09/09 10:39:27;;;;;;;10.33;7.33;;;33.90;99.90;;;;;;5119308;28;20557;-63
2023/09/09 10:41:56;;;;;;;16.27;7.33;;;33.80;99.90;;;;;;5118103;28;20756;-63
2023/09/09 10:44:26;;;;;;;9.43;7.70;;;33.90;99.90;;;;;;5119370;28;20741;-63
2023/09/09 10:46:58;;;;;;;15.33;7.70;;;33.60;99.90;;;;;;5119503;28;20771;-63
2023/09/09 10:49:27;;;;;;;11.30;7.63;;;33.60;99.90;;;;;;5111287;28;20546;-64
2023/09/09 10:51:55;;;;;;;15.47;7.43;;;33.80;99.90;;;;;;5098567;28;20462;-63
2023/09/09 10:54:24;;;;;;;15.77;7.67;;;34.00;99.90;;;;;;5097805;28;20463;-63
2023/09/09 10:56:52;;;;;;;11.80;7.40;;;34.10;99.90;;;;;;5099477;28;20467;-63
2023/09/09 10:59:21;;;;;;;11.20;7.80;;;34.10;99.90;;;;;;5098114;28;20431;-63
2023/09/09 11:02:09;;;;;;;9.07;6.90;;;33.50;99.90;;;;;;5110614;28;20477;-64
2023/09/09 11:04:39;;;;;;;14.17;7.40;;;33.30;99.90;;;;;;5118977;28;20450;-63
2023/09/09 11:07:08;;;;;;;10.43;7.20;;;33.90;99.90;;;;;;5130673;27;20962;-62
2023/09/09 11:09:36;;;;;;;16.83;6.53;;;34.20;99.90;;;;;;5122625;27;20476;-62
2023/09/09 11:12:13;;;;;;;11.70;7.20;;;34.40;99.90;;;;;;5119693;27;20578;-62
2023/09/09 11:14:45;;;;;;;11.77;7.63;;;34.60;99.90;;;;;;5131501;27;20476;-63
2023/09/09 11:17:14;;;;;;;10.80;7.20;;;34.20;99.90;;;;;;5138237;27;20468;-63
2023/09/09 11:19:43;;;;;;;9.80;7.10;;;34.50;99.90;;;;;;5118610;28;20511;-63
2023/09/09 11:22:11;;;;;;;9.43;7.60;;;34.60;99.90;;;;;;5119170;28;20451;-62
2023/09/09 11:24:39;;;;;;;8.37;7.27;;;34.80;99.90;;;;;;5119150;28;20812;-63
2023/09/09 11:27:07;;;;;;;9.80;7.07;;;34.60;99.90;;;;;;5119323;28;20438;-64
2023/09/09 11:29:34;;;;;;;11.05;7.65;;;34.80;99.90;;;;;;5115782;28;20860;-63
2023/09/09 11:32:02;;;;;;;12.88;7.28;;;35.10;99.90;;;;;;5116394;28;20201;-63
2023/09/09 11:34:32;;;;;;;12.98;7.30;;;35.10;99.90;;;;;;5117056;28;20219;-63
2023/09/09 11:37:00;;;;;;;16.20;7.23;;;35.20;99.90;;;;;;5116121;28;20454;-63
2023/09/09 11:39:28;;;;;;;7.65;6.85;;;34.80;99.90;;;;;;5124034;27;20602;-60
2023/09/09 11:41:55;;;;;;;14.55;7.55;;;35.30;99.90;;;;;;5128332;27;20204;-61
2023/09/09 11:44:22;;;;;;;15.82;6.68;;;35.30;99.90;;;;;;5112279;28;20312;-61
2023/09/09 11:46:50;;;;;;;14.93;6.43;;;35.20;99.90;;;;;;5114131;28;20244;-61
2023/09/09 11:49:18;;;;;;;8.57;6.43;;;35.50;99.90;;;;;;5114558;28;20212;-60
2023/09/09 11:51:47;;;;;;;14.67;6.90;;;35.50;99.90;;;;;;5116052;28;20224;-61
2023/09/09 11:54:21;;;;;;;11.13;7.50;;;35.40;99.90;;;;;;5116036;28;20607;-60
2023/09/09 11:56:48;;;;;;;8.70;7.10;;;35.30;99.90;;;;;;5116894;28;20202;-59
2023/09/09 11:59:16;;;;;;;10.40;6.27;;;35.40;99.90;;;;;;5115852;28;20454;-61
2023/09/09 12:01:44;;;;;;;10.00;6.72;;;35.40;99.90;;;;;;5115641;28;20494;-60
2023/09/09 12:04:12;;;;;;;14.95;6.20;;;35.40;99.90;;;;;;5115937;28;20197;-60
2023/09/09 12:06:41;;;;;;;9.10;7.33;;;35.50;99.90;;;;;;5116927;28;20694;-60
2023/09/09 12:09:10;;;;;;;9.97;7.13;;;35.30;99.90;;;;;;5116879;28;20219;-61
2023/09/09 12:11:40;;;;;;;7.53;6.20;;;35.30;99.90;;;;;;5114858;28;20482;-61
2023/09/09 12:14:07;;;;;;;20.52;6.57;;;35.60;99.90;;;;;;5115479;28;20215;-62
2023/09/09 12:16:36;;;;;;;16.70;7.25;;;35.70;99.90;;;;;;5116152;28;20227;-60
2023/09/09 12:19:03;;;;;;;16.83;6.80;;;35.50;99.90;;;;;;5116667;28;20334;-61
2023/09/09 12:21:31;;;;;;;10.33;6.03;;;35.00;99.90;;;;;;5116788;28;20228;-61
2023/09/09 12:24:00;;;;;;;14.47;7.70;;;34.20;99.90;;;;;;5117739;28;20602;-60
2023/09/09 12:26:29;;;;;;;16.00;7.10;;;33.70;99.90;;;;;;5118115;28;20440;-60
2023/09/09 12:29:07;;;;;;;13.73;6.90;;;34.40;99.90;;;;;;5117969;28;20740;-61
2023/09/09 12:31:49;;;;;;;15.20;7.27;;;34.80;99.90;;;;;;5117685;28;20498;-60
2023/09/09 12:34:19;;;;;;;12.90;6.87;;;35.30;99.90;;;;;;5117442;28;20503;-61
2023/09/09 12:36:48;;;;;;;17.40;7.20;;;35.30;99.90;;;;;;5117700;28;20454;-61
2023/09/09 12:39:20;;;;;;;13.23;7.03;;;35.40;99.90;;;;;;5108712;28;20487;-61
2023/09/09 12:42:02;;;;;;;10.20;7.30;;;35.50;99.90;;;;;;5097569;28;20487;-61
2023/09/09 12:44:32;;;;;;;17.63;7.83;;;35.50;99.90;;;;;;5097963;28;20475;-60
2023/09/09 12:47:03;;;;;;;11.30;6.65;;;35.70;99.90;;;;;;5097111;28;20451;-60
2023/09/09 12:49:31;;;;;;;19.30;7.45;;;36.00;99.90;;;;;;5096206;28;20252;-60